Time;durP1;ratioP1;P1;durP2;ratioP2;P2;SDS_P1;SDS_P2;PMS_P1;PMS_P2;Temp;Humidity;BMP_temperature;BMP_pressure;BME280_temperature;BME280_humidity;BME280_pressure;Samples;Min_cycle;Max_cycle;Signal;HPM_P1;HPM_P2
2021/12/02 00:00:22;;;;;;;;;6.00;6.00;;;;;21.21;49.61;97710.46;106537;1306;21632;-74
2021/12/02 00:03:08;;;;;;;;;5.00;5.00;;;;;21.21;49.62;97710.67;106430;1311;18722;-74
2021/12/02 00:05:35;;;;;;;;;6.00;5.00;;;;;21.20;49.50;97702.23;106842;1301;18600;-73
2021/12/02 00:08:03;;;;;;;;;4.67;4.00;;;;;21.20;49.58;97704.63;107423;1301;19093;-74
2021/12/02 00:10:31;;;;;;;;;5.00;4.00;;;;;21.20;49.49;97702.98;107459;1301;31200;-74
2021/12/02 00:12:59;;;;;;;;;5.00;4.33;;;;;21.20;49.42;97696.52;107424;1301;18130;-74
2021/12/02 00:15:32;;;;;;;;;5.50;5.00;;;;;21.20;49.44;97689.21;107478;1300;18835;-74
2021/12/02 00:18:29;;;;;;;;;4.00;4.00;;;;;21.18;49.39;97676.45;107315;1301;23154;-74
2021/12/02 00:21:05;;;;;;;;;5.33;5.00;;;;;21.20;49.52;97672.98;107464;1303;18784;-74
2021/12/02 00:23:34;;;;;;;;;5.33;5.00;;;;;21.21;49.52;97668.20;107491;1301;19125;-73
2021/12/02 00:26:02;;;;;;;;;5.00;4.33;;;;;21.20;49.49;97660.89;107446;1301;19375;-74
2021/12/02 00:28:29;;;;;;;;;5.33;5.00;;;;;21.19;49.47;97661.05;107445;1299;18984;-74
2021/12/02 00:30:56;;;;;;;;;4.00;4.00;;;;;21.20;49.48;97651.30;107463;1301;28994;-74
2021/12/02 00:33:24;;;;;;;;;4.67;4.00;;;;;21.19;49.48;97649.98;107390;1301;20416;-74
2021/12/02 00:35:51;;;;;;;;;5.00;5.00;;;;;21.17;49.49;97645.92;107375;1301;18220;-74
2021/12/02 00:38:19;;;;;;;;;5.33;5.00;;;;;21.18;49.49;97650.23;107487;1306;19058;-74
2021/12/02 00:40:46;;;;;;;;;5.00;4.50;;;;;21.17;49.50;97644.60;107435;1301;18849;-75
2021/12/02 00:43:13;;;;;;;;;5.00;4.67;;;;;21.17;49.42;97639.40;107397;1301;21269;-75
2021/12/02 00:45:41;;;;;;;;;4.00;4.00;;;;;21.18;49.38;97639.04;107356;1301;18837;-75
2021/12/02 00:48:09;;;;;;;;;4.67;4.67;;;;;21.17;49.35;97640.92;107504;1301;18501;-75
2021/12/02 00:50:36;;;;;;;;;2.00;2.00;;;;;21.16;49.44;97640.09;107458;1301;19033;-75
2021/12/02 00:53:03;;;;;;;;;5.00;5.00;;;;;21.14;49.39;97639.20;107366;1301;18854;-74
2021/12/02 00:55:31;;;;;;;;;5.67;5.00;;;;;21.12;49.46;97645.66;107348;1301;20029;-74
2021/12/02 00:57:58;;;;;;;;;4.00;4.00;;;;;21.13;49.46;97645.23;107323;1300;19515;-74
2021/12/02 01:00:26;;;;;;;;;4.67;4.67;;;;;21.13;49.36;97638.74;107314;1301;20786;-75
2021/12/02 01:02:53;;;;;;;;;5.00;5.00;;;;;21.12;49.37;97639.02;107314;1304;18457;-74
2021/12/02 01:05:21;;;;;;;;;5.00;4.67;;;;;21.13;49.30;97640.45;107495;1306;18748;-74
2021/12/02 01:07:48;;;;;;;;;5.00;4.00;;;;;21.15;49.22;97649.11;107543;1301;19215;-75
2021/12/02 01:10:15;;;;;;;;;3.33;3.33;;;;;21.14;49.33;97654.66;107498;1301;19485;-75
2021/12/02 01:12:43;;;;;;;;;4.00;4.00;;;;;21.12;49.32;97652.03;107390;1301;21197;-75
2021/12/02 01:15:10;;;;;;;;;4.67;4.67;;;;;21.13;49.37;97657.21;107383;1301;19207;-75
2021/12/02 01:17:37;;;;;;;;;4.67;4.00;;;;;21.14;49.23;97665.06;107400;1301;18546;-75
2021/12/02 01:20:05;;;;;;;;;5.00;5.00;;;;;21.14;49.23;97662.99;107863;1301;19458;-73
2021/12/02 01:22:33;;;;;;;;;4.00;4.00;;;;;21.16;49.21;97664.33;107430;1301;21849;-73
2021/12/02 01:25:01;;;;;;;;;4.00;4.00;;;;;21.16;49.12;97663.06;107494;1301;20443;-75
2021/12/02 01:27:28;;;;;;;;;4.67;4.67;;;;;21.15;49.12;97660.17;107526;1301;20705;-75
2021/12/02 01:29:56;;;;;;;;;4.00;4.00;;;;;21.16;49.17;97657.23;107396;1301;21728;-75
2021/12/02 01:32:23;;;;;;;;;5.00;4.00;;;;;21.15;49.26;97656.46;107403;1301;18746;-73
2021/12/02 01:34:51;;;;;;;;;5.00;4.33;;;;;21.13;49.19;97651.50;107458;1301;19078;-72
2021/12/02 01:37:19;;;;;;;;;4.67;4.67;;;;;21.13;49.17;97648.72;107527;1300;19098;-73
2021/12/02 01:39:46;;;;;;;;;4.00;4.00;;;;;21.12;49.13;97643.48;107457;1301;18698;-72
2021/12/02 01:42:14;;;;;;;;;4.00;4.00;;;;;21.13;49.22;97647.36;107283;1301;21000;-73
2021/12/02 01:44:41;;;;;;;;;5.00;5.00;;;;;21.12;49.17;97644.96;107405;1301;19630;-72
2021/12/02 01:47:09;;;;;;;;;5.00;5.00;;;;;21.12;49.15;97642.61;107363;1300;18863;-73
2021/12/02 01:49:36;;;;;;;;;4.33;4.00;;;;;21.11;49.27;97635.19;107298;1301;20181;-73
2021/12/02 01:52:04;;;;;;;;;4.00;4.00;;;;;21.10;49.13;97633.04;107422;1298;18976;-73
2021/12/02 01:54:31;;;;;;;;;4.00;4.00;;;;;21.08;49.20;97643.70;107465;1304;18990;-74
2021/12/02 01:57:03;;;;;;;;;4.00;4.00;;;;;21.09;49.07;97662.82;107494;1301;18206;-74
2021/12/02 01:59:33;;;;;;;;;4.00;4.00;;;;;21.09;49.05;97679.27;107511;1305;18978;-72
2021/12/02 02:02:01;;;;;;;;;5.00;5.00;;;;;21.08;49.05;97684.05;107505;1301;18421;-74
2021/12/02 02:04:28;;;;;;;;;5.00;5.00;;;;;21.10;49.03;97709.17;107409;1300;18349;-75
2021/12/02 02:06:56;;;;;;;;;5.50;5.00;;;;;21.10;49.06;97717.02;107368;1301;19034;-74
2021/12/02 02:09:23;;;;;;;;;4.00;4.00;;;;;21.10;49.15;97707.21;107478;1301;19211;-75
2021/12/02 02:11:51;;;;;;;;;4.67;4.67;;;;;21.10;48.92;97701.98;107433;1298;23778;-75
2021/12/02 02:14:18;;;;;;;;;5.33;5.00;;;;;21.05;48.98;97694.48;107490;1302;19802;-75
2021/12/02 02:16:47;;;;;;;;;4.50;4.00;;;;;21.08;48.87;97700.50;107440;1302;18483;-75
2021/12/02 02:19:14;;;;;;;;;6.00;5.33;;;;;21.08;48.93;97699.84;107469;1301;18189;-75
2021/12/02 02:21:42;;;;;;;;;6.00;5.50;;;;;21.09;49.05;97701.98;107526;1301;19416;-75
2021/12/02 02:24:13;;;;;;;;;5.00;4.00;;;;;21.09;48.90;97695.71;107386;1301;18536;-75
2021/12/02 02:26:40;;;;;;;;;5.00;5.00;;;;;21.08;48.91;97696.74;107469;1301;18984;-75
2021/12/02 02:29:08;;;;;;;;;6.00;4.33;;;;;21.09;48.85;97698.27;107476;1301;20131;-76
2021/12/02 02:31:35;;;;;;;;;6.00;6.00;;;;;21.08;49.00;97697.23;107456;1301;19070;-75
2021/12/02 02:34:03;;;;;;;;;4.00;4.00;;;;;21.07;48.89;97703.11;107429;1301;19264;-75
2021/12/02 02:36:30;;;;;;;;;6.00;5.33;;;;;21.08;48.81;97703.11;107359;1301;18835;-75
2021/12/02 02:38:58;;;;;;;;;4.00;4.00;;;;;21.09;48.84;97698.65;107370;1301;18842;-74
2021/12/02 02:41:26;;;;;;;;;7.33;5.00;;;;;21.09;48.67;97700.29;107474;1302;18421;-75
2021/12/02 02:43:55;;;;;;;;;5.33;4.67;;;;;21.10;48.73;97694.52;107390;1301;18873;-75
2021/12/02 02:46:23;;;;;;;;;4.00;4.00;;;;;21.08;48.81;97694.77;107315;1301;18578;-75
2021/12/02 02:48:50;;;;;;;;;5.00;5.00;;;;;21.07;48.63;97692.75;107367;1301;19798;-75
2021/12/02 02:51:18;;;;;;;;;4.00;4.00;;;;;21.07;48.72;97694.45;107433;1301;19142;-75
2021/12/02 02:53:45;;;;;;;;;4.50;4.50;;;;;21.07;48.68;97696.08;107235;1301;26927;-75
2021/12/02 02:56:15;;;;;;;;;4.00;4.00;;;;;21.05;48.72;97692.95;107474;1301;18922;-75
2021/12/02 02:58:56;;;;;;;;;2.67;2.67;;;;;21.05;48.64;97692.73;107447;1301;18925;-75
2021/12/02 03:04:18;;;;;;;;;4.00;4.00;;;;;21.04;48.68;97693.04;106717;1306;18122;-75
2021/12/02 03:06:51;;;;;;;;;4.33;4.00;;;;;21.05;48.72;97696.29;106745;1307;20681;-74
2021/12/02 03:09:24;;;;;;;;;4.67;4.00;;;;;21.06;48.56;97695.48;106760;1307;18762;-75
2021/12/02 03:11:54;;;;;;;;;4.00;4.00;;;;;21.05;48.52;97704.28;106699;1308;18111;-75
2021/12/02 03:14:27;;;;;;;;;5.00;4.50;;;;;21.04;48.58;97696.48;106740;1311;21143;-75
2021/12/02 03:16:55;;;;;;;;;4.00;4.00;;;;;21.05;48.39;97702.26;106776;1307;21559;-75
2021/12/02 03:19:23;;;;;;;;;4.50;4.50;;;;;21.06;48.47;97700.97;106773;1307;18453;-74
2021/12/02 03:21:50;;;;;;;;;2.67;2.67;;;;;21.05;48.48;97698.89;106738;1307;18903;-74
2021/12/02 03:24:17;;;;;;;;;4.00;4.00;;;;;21.05;48.42;97699.44;106784;1307;18737;-74
2021/12/02 03:26:45;;;;;;;;;2.00;2.00;;;;;21.05;48.41;97700.95;106747;1305;20645;-75
2021/12/02 03:29:12;;;;;;;;;2.00;2.00;;;;;21.05;48.41;97696.37;106876;1305;19239;-75
2021/12/02 03:31:39;;;;;;;;;4.00;4.00;;;;;21.04;48.39;97692.33;106807;1307;18898;-74
2021/12/02 03:34:07;;;;;;;;;4.67;4.00;;;;;21.05;48.26;97689.97;106770;1307;23253;-74
2021/12/02 03:36:35;;;;;;;;;4.33;4.00;;;;;21.05;48.21;97701.62;106754;1305;27482;-75
2021/12/02 03:39:02;;;;;;;;;3.33;3.33;;;;;21.03;48.36;97695.31;106709;1307;19124;-74
2021/12/02 03:41:29;;;;;;;;;4.00;2.67;;;;;21.03;48.18;97708.60;107046;1301;19025;-74
2021/12/02 03:43:56;;;;;;;;;2.67;2.67;;;;;21.03;48.25;97710.56;107505;1301;19018;-75
2021/12/02 03:46:24;;;;;;;;;2.00;2.00;;;;;21.04;48.16;97704.10;107447;1301;18810;-74
2021/12/02 03:48:51;;;;;;;;;4.00;2.00;;;;;21.04;48.25;97704.85;107386;1301;19279;-73
2021/12/02 03:51:18;;;;;;;;;4.00;4.00;;;;;21.04;48.15;97698.20;107337;1301;19755;-73
2021/12/02 03:53:46;;;;;;;;;2.00;2.00;;;;;21.04;48.08;97697.77;107487;1301;21096;-72
2021/12/02 03:56:13;;;;;;;;;2.00;2.00;;;;;21.04;47.98;97691.41;107442;1300;18215;-72
2021/12/02 03:58:40;;;;;;;;;4.00;2.67;;;;;21.04;48.09;97692.42;107464;1301;18750;-73
2021/12/02 04:01:08;;;;;;;;;2.00;2.00;;;;;21.02;48.07;97696.88;107426;1301;18431;-73
2021/12/02 04:03:35;;;;;;;;;4.50;4.50;;;;;21.01;48.08;97694.42;107314;1301;18206;-74
2021/12/02 04:06:02;;;;;;;;;4.00;4.00;;;;;21.03;47.98;97699.50;107330;1301;20451;-73
2021/12/02 04:08:32;;;;;;;;;2.00;2.00;;;;;21.02;47.98;97694.38;107448;1301;19958;-73
2021/12/02 04:11:13;;;;;;;;;3.33;3.33;;;;;21.01;47.87;97699.33;107346;1300;18578;-73
2021/12/02 04:13:49;;;;;;;;;2.00;2.00;;;;;21.01;47.96;97701.34;107318;1301;18945;-73
2021/12/02 04:16:18;;;;;;;;;2.00;2.00;;;;;21.01;47.91;97693.82;107308;1301;18465;-74
2021/12/02 04:18:45;;;;;;;;;4.00;2.67;;;;;21.01;47.82;97701.98;107427;1301;18471;-73
2021/12/02 04:21:12;;;;;;;;;2.00;2.00;;;;;21.01;47.73;97703.08;107285;1301;18989;-73
2021/12/02 04:23:40;;;;;;;;;2.00;2.00;;;;;21.00;47.67;97702.19;107269;1301;21977;-73
2021/12/02 04:26:07;;;;;;;;;2.00;2.00;;;;;21.01;47.76;97700.03;107297;1301;18320;-74
2021/12/02 04:28:34;;;;;;;;;2.00;2.00;;;;;21.01;47.64;97688.33;107262;1301;19027;-74
2021/12/02 04:31:02;;;;;;;;;2.00;2.00;;;;;21.01;47.75;97703.02;107291;1300;18561;-74
2021/12/02 04:33:30;;;;;;;;;2.00;2.00;;;;;21.02;47.50;97705.43;107413;1301;18567;-74
2021/12/02 04:35:57;;;;;;;;;2.00;2.00;;;;;21.03;47.60;97710.23;107371;1301;18828;-73
2021/12/02 04:38:24;;;;;;;;;2.00;2.00;;;;;21.00;47.49;97723.10;107303;1301;19236;-73
2021/12/02 04:40:52;;;;;;;;;2.00;2.00;;;;;21.02;47.38;97730.70;107326;1301;18266;-73
2021/12/02 04:43:19;;;;;;;;;2.00;2.00;;;;;20.97;47.60;97715.77;107299;1300;19592;-73
2021/12/02 04:45:46;;;;;;;;;4.00;4.00;;;;;21.01;47.44;97732.43;107321;1301;18419;-73
2021/12/02 04:48:14;;;;;;;;;4.00;3.33;;;;;21.02;47.43;97732.33;107274;1301;23302;-73
2021/12/02 04:50:41;;;;;;;;;2.00;2.00;;;;;21.00;47.44;97746.52;107284;1301;18920;-72
2021/12/02 04:53:09;;;;;;;;;1.33;1.33;;;;;21.01;47.34;97736.45;107329;1301;18514;-73
2021/12/02 04:55:36;;;;;;;;;2.67;2.67;;;;;21.00;47.40;97742.05;107321;1301;18700;-72
2021/12/02 04:58:03;;;;;;;;;2.00;2.00;;;;;20.99;47.27;97763.93;107372;1301;18961;-73
2021/12/02 05:00:30;;;;;;;;;4.00;2.00;;;;;21.00;47.22;97758.39;107380;1301;18558;-73
2021/12/02 05:02:58;;;;;;;;;3.33;3.33;;;;;21.01;47.21;97763.89;107296;1303;24259;-72
2021/12/02 05:05:25;;;;;;;;;4.00;4.00;;;;;21.01;47.06;97761.17;107273;1304;19049;-73
2021/12/02 05:07:54;;;;;;;;;4.00;2.67;;;;;21.00;46.97;97759.75;107274;1301;19016;-73
2021/12/02 05:10:21;;;;;;;;;2.00;2.00;;;;;20.99;47.09;97765.28;107305;1301;18115;-73
2021/12/02 05:12:48;;;;;;;;;2.00;2.00;;;;;20.98;47.01;97774.75;107353;1300;21485;-74
2021/12/02 05:15:16;;;;;;;;;3.33;2.00;;;;;20.99;47.04;97777.61;107376;1301;19368;-74
2021/12/02 05:17:43;;;;;;;;;2.00;2.00;;;;;20.99;46.99;97769.94;107156;1298;293604;-72
2021/12/02 05:20:10;;;;;;;;;1.00;1.00;;;;;21.00;47.11;97773.96;107384;1301;19275;-74
2021/12/02 05:22:38;;;;;;;;;2.00;2.00;;;;;21.01;47.01;97781.87;107331;1301;23877;-74
2021/12/02 05:25:05;;;;;;;;;2.00;2.00;;;;;21.01;47.03;97792.11;107399;1301;18216;-74
2021/12/02 05:27:32;;;;;;;;;4.00;2.00;;;;;21.01;46.92;97795.59;107367;1296;20417;-74
2021/12/02 05:29:59;;;;;;;;;2.00;1.00;;;;;21.01;46.89;97772.94;107321;1301;18493;-74
2021/12/02 05:32:30;;;;;;;;;4.00;4.00;;;;;21.01;46.78;97797.34;107330;1301;22352;-74
2021/12/02 05:34:57;;;;;;;;;2.00;2.00;;;;;21.01;46.78;97797.39;107316;1300;18827;-74
2021/12/02 05:37:24;;;;;;;;;1.33;1.33;;;;;21.01;46.69;97795.86;107311;1301;18573;-74
2021/12/02 05:39:52;;;;;;;;;1.00;1.00;;;;;21.00;46.73;97801.23;107211;1301;19538;-74
2021/12/02 05:42:19;;;;;;;;;2.00;2.00;;;;;20.99;46.61;97815.38;107287;1304;19417;-74
2021/12/02 05:44:46;;;;;;;;;1.33;1.33;;;;;20.98;46.68;97817.07;107276;1301;21843;-73
2021/12/02 05:47:14;;;;;;;;;4.00;2.00;;;;;20.99;46.56;97832.21;107269;1300;19132;-74
2021/12/02 05:49:41;;;;;;;;;2.00;2.00;;;;;20.99;46.66;97841.89;107291;1301;22385;-74
2021/12/02 05:52:08;;;;;;;;;2.00;2.00;;;;;21.01;46.60;97849.39;107316;1301;19208;-74
2021/12/02 05:54:35;;;;;;;;;2.00;2.00;;;;;20.99;46.47;97846.91;107340;1300;19671;-74
2021/12/02 05:57:03;;;;;;;;;2.00;2.00;;;;;21.00;46.48;97850.36;107258;1301;18966;-74
2021/12/02 05:59:30;;;;;;;;;2.00;2.00;;;;;20.99;46.49;97859.44;107317;1306;18666;-74
2021/12/02 06:01:57;;;;;;;;;2.00;2.00;;;;;20.98;46.58;97863.86;107440;1301;28838;-74
2021/12/02 06:04:25;;;;;;;;;2.00;2.00;;;;;20.98;46.46;97867.25;107422;1300;19230;-74
2021/12/02 06:06:52;;;;;;;;;4.00;4.00;;;;;20.98;46.51;97871.65;107358;1301;18441;-74
2021/12/02 06:09:20;;;;;;;;;1.00;1.00;;;;;20.97;46.42;97883.68;107352;1298;21384;-74
2021/12/02 06:11:47;;;;;;;;;3.33;2.67;;;;;20.97;46.44;97892.98;107374;1301;18853;-73
2021/12/02 06:14:14;;;;;;;;;2.00;2.00;;;;;20.97;46.46;97897.14;107406;1301;18755;-74
2021/12/02 06:16:42;;;;;;;;;2.00;2.00;;;;;20.97;46.39;97905.40;107358;1301;18767;-74
2021/12/02 06:19:09;;;;;;;;;2.00;2.00;;;;;20.96;46.46;97907.19;107351;1301;18956;-74
2021/12/02 06:21:36;;;;;;;;;1.00;1.00;;;;;20.97;46.51;97906.27;107319;1301;23063;-74
2021/12/02 06:24:05;;;;;;;;;2.00;2.00;;;;;20.96;46.45;97912.73;107403;1301;18078;-73
2021/12/02 06:26:32;;;;;;;;;2.00;2.00;;;;;20.96;46.41;97919.11;107536;1304;18870;-74
2021/12/02 06:29:00;;;;;;;;;2.00;2.00;;;;;20.97;46.54;97926.09;107338;1301;19361;-73
2021/12/02 06:31:27;;;;;;;;;1.33;1.33;;;;;20.97;46.34;97922.71;107381;1301;18217;-74
2021/12/02 06:33:54;;;;;;;;;2.00;2.00;;;;;20.96;46.30;97927.23;107395;1301;19011;-73
2021/12/02 06:36:22;;;;;;;;;1.00;1.00;;;;;20.97;46.31;97927.34;107290;1303;18533;-74
2021/12/02 06:38:51;;;;;;;;;1.33;1.33;;;;;20.95;46.39;97928.19;107271;1301;19079;-73
2021/12/02 06:41:18;;;;;;;;;2.00;2.00;;;;;20.97;46.38;97927.79;107461;1301;19804;-75
2021/12/02 06:43:46;;;;;;;;;2.00;1.00;;;;;20.96;46.39;97926.30;107455;1299;22481;-75
2021/12/02 06:46:13;;;;;;;;;1.67;1.67;;;;;20.95;46.32;97929.27;107441;1301;22184;-76
2021/12/02 06:48:40;;;;;;;;;1.00;1.00;;;;;20.97;46.20;97941.11;107475;1301;19211;-75
2021/12/02 06:51:10;;;;;;;;;2.00;2.00;;;;;21.03;46.45;97944.39;107335;1300;19374;-76
2021/12/02 06:53:37;;;;;;;;;2.00;2.00;;;;;21.10;46.93;97949.58;107333;1301;18275;-76
2021/12/02 06:56:05;;;;;;;;;2.00;2.00;;;;;21.14;47.15;97952.65;107340;1301;19600;-73
2021/12/02 06:58:33;;;;;;;;;2.00;2.00;;;;;21.20;47.41;97959.27;107413;1301;20475;-73
2021/12/02 07:01:00;;;;;;;;;1.00;1.00;;;;;21.22;47.77;97949.94;107291;1301;22156;-74
2021/12/02 07:03:27;;;;;;;;;2.00;2.00;;;;;21.27;47.89;97958.51;107415;1301;19705;-75
2021/12/02 07:05:55;;;;;;;;;2.00;2.00;;;;;21.26;48.06;97953.54;107396;1301;19711;-76
2021/12/02 07:08:23;;;;;;;;;4.00;2.00;;;;;21.26;48.21;97957.64;107267;1301;20162;-75
2021/12/02 07:10:50;;;;;;;;;2.00;2.00;;;;;21.26;47.92;97952.90;107270;1301;19021;-75
2021/12/02 07:13:18;;;;;;;;;2.00;2.00;;;;;21.24;48.04;97959.46;107194;1301;18900;-76
2021/12/02 07:15:50;;;;;;;;;1.00;1.00;;;;;21.22;47.79;97963.02;108098;1301;18364;-78
2021/12/02 07:18:17;;;;;;;;;1.67;1.00;;;;;21.19;47.87;97964.14;107265;1301;22511;-76
2021/12/02 07:20:45;;;;;;;;;2.00;2.00;;;;;21.18;47.82;97970.13;107255;1301;18663;-76
2021/12/02 07:23:12;;;;;;;;;2.00;2.00;;;;;21.14;47.50;97964.84;107305;1301;18797;-73
2021/12/02 07:25:40;;;;;;;;;2.00;2.00;;;;;21.12;47.72;97977.38;107309;1300;21023;-76
2021/12/02 07:28:08;;;;;;;;;2.67;2.67;;;;;21.11;47.73;97982.43;107395;1301;18414;-74
2021/12/02 07:30:35;;;;;;;;;4.00;4.00;;;;;21.12;47.82;97979.35;107401;1301;19134;-76
2021/12/02 07:33:02;;;;;;;;;4.00;4.00;;;;;21.16;47.74;97987.31;107271;1304;18946;-75
2021/12/02 07:35:30;;;;;;;;;4.00;4.00;;;;;21.20;47.62;97991.67;107464;1301;18461;-75
2021/12/02 07:37:57;;;;;;;;;6.00;5.67;;;;;21.22;47.26;97992.47;107335;1301;18199;-75
2021/12/02 07:40:24;;;;;;;;;6.67;6.67;;;;;21.18;47.80;97990.52;107392;1301;21585;-75
2021/12/02 07:42:52;;;;;;;;;8.00;8.00;;;;;21.14;47.75;97995.71;107223;1301;18429;-76
2021/12/02 07:45:20;;;;;;;;;8.33;8.00;;;;;21.10;47.72;98013.50;107228;1303;28582;-75
2021/12/02 07:47:48;;;;;;;;;6.67;6.00;;;;;21.07;47.82;98008.95;108361;1302;19148;-75
2021/12/02 07:50:15;;;;;;;;;9.67;9.00;;;;;21.06;47.75;98020.59;107657;1301;19362;-75
2021/12/02 07:52:44;;;;;;;;;9.33;9.00;;;;;21.07;47.66;98029.20;108080;1301;19459;-76
2021/12/02 07:55:11;;;;;;;;;13.33;12.33;;;;;21.07;47.58;98032.47;107217;1301;18842;-76
2021/12/02 07:57:40;;;;;;;;;12.67;11.33;;;;;21.06;47.52;98029.58;107207;1301;18444;-76
2021/12/02 08:00:07;;;;;;;;;14.00;13.00;;;;;21.06;47.52;98035.58;107251;1301;18463;-75
2021/12/02 08:02:35;;;;;;;;;12.67;9.67;;;;;21.05;47.51;98029.98;107323;1301;21071;-77
2021/12/02 08:05:03;;;;;;;;;9.67;9.33;;;;;21.04;47.42;98034.66;107341;1301;19171;-76
2021/12/02 08:07:31;;;;;;;;;10.67;9.67;;;;;21.02;47.26;98059.88;107396;1301;18086;-76
2021/12/02 08:09:58;;;;;;;;;12.00;11.33;;;;;21.02;47.15;98055.36;107346;1301;22971;-75
2021/12/02 08:12:26;;;;;;;;;16.00;12.67;;;;;21.08;47.20;98065.55;107351;1301;20486;-76
2021/12/02 08:14:53;;;;;;;;;10.00;9.00;;;;;21.15;47.87;98064.30;107509;1304;18348;-76
2021/12/02 08:17:21;;;;;;;;;13.33;10.00;;;;;21.16;47.83;98061.66;107397;1301;21347;-76
2021/12/02 08:19:48;;;;;;;;;9.50;9.00;;;;;21.19;47.75;98066.02;107453;1301;20856;-76
2021/12/02 08:22:15;;;;;;;;;9.33;9.33;;;;;21.23;49.34;98073.29;107364;1301;18651;-77
2021/12/02 08:24:43;;;;;;;;;9.00;9.00;;;;;21.27;49.72;98071.36;107386;1301;19774;-77
2021/12/02 08:27:10;;;;;;;;;12.67;10.00;;;;;21.27;51.17;98063.83;107446;1301;18573;-77
2021/12/02 08:29:37;;;;;;;;;13.50;11.00;;;;;21.30;51.23;98071.38;107369;1301;20100;-76
2021/12/02 08:32:05;;;;;;;;;13.67;13.00;;;;;21.31;51.21;98067.69;107343;1300;23321;-76
2021/12/02 08:34:32;;;;;;;;;9.33;9.00;;;;;21.30;50.88;98069.86;107379;1301;18841;-75
2021/12/02 08:36:59;;;;;;;;;12.00;8.67;;;;;21.28;50.71;98078.41;107401;1301;18344;-75
2021/12/02 08:39:28;;;;;;;;;10.67;9.00;;;;;21.30;50.37;98082.17;107375;1301;23820;-77
2021/12/02 08:41:55;;;;;;;;;9.00;8.00;;;;;21.32;49.91;98081.66;107281;1300;20969;-75
2021/12/02 08:44:23;;;;;;;;;8.00;6.00;;;;;21.32;49.84;98089.23;107484;1303;21681;-76
2021/12/02 08:46:51;;;;;;;;;9.00;8.50;;;;;21.33;49.56;98095.34;107379;1300;20342;-73
2021/12/02 08:49:18;;;;;;;;;8.50;8.00;;;;;21.30;49.70;98095.52;107348;1301;18405;-78
2021/12/02 08:51:46;;;;;;;;;8.67;8.67;;;;;21.30;49.56;98101.23;107329;1301;18735;-78
2021/12/02 08:54:13;;;;;;;;;9.00;9.00;;;;;21.32;49.92;98104.42;107470;1301;18991;-76
2021/12/02 08:56:40;;;;;;;;;8.00;8.00;;;;;21.30;50.43;98117.58;107492;1301;19339;-75
2021/12/02 08:59:08;;;;;;;;;8.33;8.00;;;;;21.32;50.16;98115.44;107367;1301;20373;-77
2021/12/02 09:01:35;;;;;;;;;9.33;8.00;;;;;21.32;50.08;98107.65;107287;1297;22368;-75
2021/12/02 09:04:03;;;;;;;;;9.00;8.33;;;;;21.34;50.20;98112.03;107341;1301;18578;-75
2021/12/02 09:06:30;;;;;;;;;8.00;8.00;;;;;21.37;49.71;98112.98;107347;1301;20682;-75
2021/12/02 09:08:59;;;;;;;;;8.33;8.00;;;;;21.41;49.47;98115.39;107316;1301;18827;-75
2021/12/02 09:11:26;;;;;;;;;13.00;9.33;;;;;21.39;49.37;98117.58;107422;1301;22407;-76
2021/12/02 09:13:57;;;;;;;;;10.00;9.00;;;;;21.38;49.38;98111.13;107324;1302;19283;-78
2021/12/02 09:16:24;;;;;;;;;9.00;8.00;;;;;21.39;49.29;98122.70;107424;1301;18927;-78
2021/12/02 09:18:51;;;;;;;;;10.00;9.00;;;;;21.40;49.24;98118.91;107438;1301;18919;-80
2021/12/02 09:21:19;;;;;;;;;12.00;8.67;;;;;21.40;49.54;98130.23;107484;1301;18528;-78
2021/12/02 09:23:46;;;;;;;;;12.00;10.67;;;;;21.39;49.43;98121.27;107485;1301;20443;-78
2021/12/02 09:26:13;;;;;;;;;40.33;33.33;;;;;21.40;49.53;98122.93;107324;1301;18845;-79
2021/12/02 09:28:41;;;;;;;;;57.00;42.00;;;;;21.41;49.49;98129.51;107324;1301;22212;-79
2021/12/02 09:31:08;;;;;;;;;194.50;143.25;;;;;21.40;49.65;98135.68;107484;1301;18911;-80
2021/12/02 09:33:35;;;;;;;;;168.25;132.00;;;;;21.37;49.85;98129.25;107432;1301;21151;-80
2021/12/02 09:36:03;;;;;;;;;171.50;126.25;;;;;21.39;49.82;98135.33;107408;1301;18919;-81
2021/12/02 09:38:30;;;;;;;;;156.25;117.50;;;;;21.41;49.54;98140.83;107356;1301;19031;-77
2021/12/02 09:40:57;;;;;;;;;123.00;94.33;;;;;21.43;49.44;98143.82;107315;1298;19306;-77
2021/12/02 09:43:24;;;;;;;;;164.25;124.75;;;;;21.44;49.08;98137.52;107325;1300;22273;-77
2021/12/02 09:45:52;;;;;;;;;147.50;110.50;;;;;21.41;49.36;98145.63;107299;1300;20373;-80
2021/12/02 09:48:19;;;;;;;;;146.00;116.00;;;;;21.41;49.11;98146.23;107386;1301;22549;-78
2021/12/02 09:50:53;;;;;;;;;221.25;158.50;;;;;21.39;49.03;98152.23;107318;1301;19547;-79
2021/12/02 09:53:24;;;;;;;;;185.00;141.75;;;;;21.42;49.08;98149.08;107328;1298;19043;-78
2021/12/02 09:55:57;;;;;;;;;146.25;113.50;;;;;21.45;49.21;98161.17;107410;1301;19853;-78
2021/12/02 09:58:26;;;;;;;;;127.00;100.00;;;;;21.44;49.12;98159.69;107354;1301;18934;-78
2021/12/02 10:00:58;;;;;;;;;117.67;88.33;;;;;21.40;48.80;98172.27;107495;1298;23655;-78
2021/12/02 10:03:31;;;;;;;;;110.33;83.00;;;;;21.39;48.71;98173.64;107443;1298;21023;-79
2021/12/02 10:05:58;;;;;;;;;111.67;79.33;;;;;21.40;48.52;98167.40;107502;1298;18783;-78
2021/12/02 10:08:26;;;;;;;;;101.00;72.67;;;;;21.41;48.39;98174.36;107142;1301;18737;-78
2021/12/02 10:10:56;;;;;;;;;95.67;67.00;;;;;21.40;48.29;98180.90;107103;1300;20046;-73
2021/12/02 10:13:28;;;;;;;;;92.00;67.00;;;;;21.39;48.25;98182.20;107378;1301;18503;-79
2021/12/02 10:15:56;;;;;;;;;89.67;64.00;;;;;21.36;47.94;98180.45;107476;1301;19128;-79
2021/12/02 10:18:26;;;;;;;;;87.00;62.00;;;;;21.32;47.64;98180.60;107231;1301;18959;-79
2021/12/02 10:20:54;;;;;;;;;81.33;60.67;;;;;21.30;47.35;98182.70;107308;1301;18493;-79
2021/12/02 10:23:23;;;;;;;;;86.33;57.33;;;;;21.27;47.30;98188.10;107421;1301;19768;-78
2021/12/02 10:25:50;;;;;;;;;73.00;53.00;;;;;21.26;47.17;98200.27;107405;1301;18820;-78
2021/12/02 10:28:17;;;;;;;;;74.33;53.00;;;;;21.24;46.98;98186.58;107411;1301;20167;-78
2021/12/02 10:30:45;;;;;;;;;80.67;55.67;;;;;21.24;47.14;98200.13;107435;1301;18843;-77
2021/12/02 10:33:12;;;;;;;;;70.67;53.00;;;;;21.22;47.30;98196.92;107437;1301;20968;-78
2021/12/02 10:35:40;;;;;;;;;74.33;52.00;;;;;21.20;46.95;98192.03;107409;1301;18378;-75
2021/12/02 10:38:07;;;;;;;;;76.33;51.67;;;;;21.19;46.93;98205.59;107503;1301;19412;-74
2021/12/02 10:40:36;;;;;;;;;59.00;43.67;;;;;21.17;47.00;98208.90;107718;1301;18846;-76
2021/12/02 10:43:04;;;;;;;;;50.33;39.33;;;;;20.89;45.46;98212.85;107481;1301;18373;-76
2021/12/02 10:45:31;;;;;;;;;43.33;35.33;;;;;20.57;44.31;98212.92;107482;1301;19957;-76
2021/12/02 10:47:58;;;;;;;;;40.67;32.67;;;;;20.27;43.69;98213.77;107387;1301;18891;-75
2021/12/02 10:50:26;;;;;;;;;31.33;25.00;;;;;20.19;42.27;98210.07;107622;1304;18527;-75
2021/12/02 10:52:53;;;;;;;;;30.33;24.33;;;;;20.00;41.32;98217.81;107549;1302;20059;-77
2021/12/02 10:55:22;;;;;;;;;19.67;18.67;;;;;19.89;40.37;98223.46;107371;1301;19648;-75
2021/12/02 10:57:49;;;;;;;;;16.33;15.67;;;;;19.83;39.37;98227.44;107348;1301;18505;-75
2021/12/02 11:00:16;;;;;;;;;14.33;13.00;;;;;19.66;38.89;98232.69;107522;1301;19592;-75
2021/12/02 11:02:48;;;;;;;;;16.50;12.50;;;;;19.58;38.07;98240.32;107372;1301;23410;-75
2021/12/02 11:05:20;;;;;;;;;12.67;11.33;;;;;19.51;37.34;98231.48;107358;1301;19165;-75
2021/12/02 11:07:47;;;;;;;;;9.00;8.67;;;;;19.48;36.79;98241.33;107354;1301;18967;-75
2021/12/02 11:10:14;;;;;;;;;8.00;8.00;;;;;19.44;36.14;98245.57;107330;1301;18989;-74
2021/12/02 11:12:42;;;;;;;;;8.33;7.67;;;;;19.42;35.81;98251.70;107298;1300;18276;-75
2021/12/02 11:15:09;;;;;;;;;6.67;5.67;;;;;19.35;35.27;98253.80;107513;1301;18817;-75
2021/12/02 11:17:36;;;;;;;;;9.00;8.50;;;;;19.19;34.96;98263.08;107510;1301;18586;-75
2021/12/02 11:20:04;;;;;;;;;5.00;5.00;;;;;19.17;34.72;98268.63;107387;1301;19098;-74
2021/12/02 11:22:31;;;;;;;;;4.50;4.50;;;;;19.24;34.33;98271.77;107417;1301;18755;-74
2021/12/02 11:24:58;;;;;;;;;8.67;8.00;;;;;19.21;34.33;98283.06;107500;1301;18794;-74
2021/12/02 11:27:26;;;;;;;;;7.00;6.33;;;;;19.19;33.86;98283.51;107331;1301;20678;-75